Terminal Aerodrome Forecast
Issued by NWS Wichita, KS

Home | Current Version | Previous Version | Graphics & Text | Print | Product List | Glossary On
Versions: 1 2 3 4 5 6 7 8 9 10 11 12 13 14 15 16 17 18
000
FTUS43 KICT 261345 AAB
TAFICT
TAF AMD
KICT 261345Z 2614/2712 01022G30KT P6SM SCT022 BKN150
     FM261700 01017G25KT P6SM SCT150
     FM270000 02007KT P6SM BKN100=

USA.gov is the U.S. government's official web portal to all federal, state and local government web resources and services.